sensor_id;sensor_type;location;lat;lon;timestamp;P1;durP1;ratioP1;P2;durP2;ratioP2
8861;SDS011;4799;50.996;4.754;2023-04-24T00:00:56;17.57;;;13.50;;
8861;SDS011;4799;50.996;4.754;2023-04-24T00:03:24;14.67;;;13.13;;
8861;SDS011;4799;50.996;4.754;2023-04-24T00:05:51;16.53;;;13.63;;
8861;SDS011;4799;50.996;4.754;2023-04-24T00:08:17;17.73;;;14.10;;
8861;SDS011;4799;50.996;4.754;2023-04-24T00:10:43;18.27;;;14.50;;
8861;SDS011;4799;50.996;4.754;2023-04-24T00:13:09;16.80;;;14.67;;
8861;SDS011;4799;50.996;4.754;2023-04-24T00:15:35;17.77;;;14.30;;
8861;SDS011;4799;50.996;4.754;2023-04-24T00:18:00;16.03;;;14.33;;
8861;SDS011;4799;50.996;4.754;2023-04-24T00:20:27;16.73;;;14.97;;
8861;SDS011;4799;50.996;4.754;2023-04-24T00:22:54;16.70;;;14.60;;
8861;SDS011;4799;50.996;4.754;2023-04-24T00:25:20;21.13;;;16.20;;
8861;SDS011;4799;50.996;4.754;2023-04-24T00:27:46;20.93;;;15.17;;
8861;SDS011;4799;50.996;4.754;2023-04-24T00:30:12;17.47;;;15.37;;
8861;SDS011;4799;50.996;4.754;2023-04-24T00:32:38;17.07;;;15.33;;
8861;SDS011;4799;50.996;4.754;2023-04-24T00:35:04;20.33;;;15.93;;
8861;SDS011;4799;50.996;4.754;2023-04-24T00:37:31;17.90;;;15.93;;
8861;SDS011;4799;50.996;4.754;2023-04-24T00:39:57;17.47;;;15.67;;
8861;SDS011;4799;50.996;4.754;2023-04-24T00:42:22;18.23;;;15.23;;
8861;SDS011;4799;50.996;4.754;2023-04-24T00:44:49;19.13;;;16.13;;
8861;SDS011;4799;50.996;4.754;2023-04-24T00:47:15;18.37;;;15.77;;
8861;SDS011;4799;50.996;4.754;2023-04-24T00:49:41;17.63;;;15.73;;
8861;SDS011;4799;50.996;4.754;2023-04-24T00:52:07;17.13;;;15.30;;
8861;SDS011;4799;50.996;4.754;2023-04-24T00:54:34;20.07;;;16.00;;
8861;SDS011;4799;50.996;4.754;2023-04-24T00:57:02;17.70;;;14.93;;
8861;SDS011;4799;50.996;4.754;2023-04-24T00:59:29;18.50;;;14.40;;
8861;SDS011;4799;50.996;4.754;2023-04-24T01:01:55;17.67;;;14.63;;
8861;SDS011;4799;50.996;4.754;2023-04-24T01:04:21;17.57;;;14.40;;
8861;SDS011;4799;50.996;4.754;2023-04-24T01:06:47;19.03;;;14.37;;
8861;SDS011;4799;50.996;4.754;2023-04-24T01:09:15;18.13;;;15.00;;
8861;SDS011;4799;50.996;4.754;2023-04-24T01:11:42;22.37;;;15.50;;
8861;SDS011;4799;50.996;4.754;2023-04-24T01:14:10;16.77;;;14.97;;
8861;SDS011;4799;50.996;4.754;2023-04-24T01:16:36;19.40;;;14.87;;
8861;SDS011;4799;50.996;4.754;2023-04-24T01:19:03;15.47;;;13.83;;
8861;SDS011;4799;50.996;4.754;2023-04-24T01:21:31;15.23;;;13.73;;
8861;SDS011;4799;50.996;4.754;2023-04-24T01:24:01;17.30;;;15.37;;
8861;SDS011;4799;50.996;4.754;2023-04-24T01:26:28;17.43;;;15.53;;
8861;SDS011;4799;50.996;4.754;2023-04-24T01:28:53;17.17;;;15.33;;
8861;SDS011;4799;50.996;4.754;2023-04-24T01:31:19;17.70;;;15.80;;
8861;SDS011;4799;50.996;4.754;2023-04-24T01:33:45;17.53;;;15.70;;
8861;SDS011;4799;50.996;4.754;2023-04-24T01:36:12;17.17;;;15.43;;
8861;SDS011;4799;50.996;4.754;2023-04-24T01:38:39;19.23;;;14.77;;
8861;SDS011;4799;50.996;4.754;2023-04-24T01:41:04;16.90;;;15.10;;
8861;SDS011;4799;50.996;4.754;2023-04-24T01:43:30;17.70;;;15.13;;
8861;SDS011;4799;50.996;4.754;2023-04-24T01:45:57;17.37;;;14.63;;
8861;SDS011;4799;50.996;4.754;2023-04-24T01:48:23;16.97;;;14.63;;
8861;SDS011;4799;50.996;4.754;2023-04-24T01:50:48;15.90;;;14.20;;
8861;SDS011;4799;50.996;4.754;2023-04-24T01:53:14;15.13;;;13.60;;
8861;SDS011;4799;50.996;4.754;2023-04-24T01:55:40;15.93;;;14.27;;
8861;SDS011;4799;50.996;4.754;2023-04-24T01:58:06;15.40;;;13.77;;
8861;SDS011;4799;50.996;4.754;2023-04-24T02:00:32;15.53;;;13.93;;
8861;SDS011;4799;50.996;4.754;2023-04-24T02:02:58;15.77;;;14.27;;
8861;SDS011;4799;50.996;4.754;2023-04-24T02:05:23;14.67;;;13.17;;
8861;SDS011;4799;50.996;4.754;2023-04-24T02:07:49;15.17;;;13.33;;
8861;SDS011;4799;50.996;4.754;2023-04-24T02:10:15;14.37;;;13.07;;
8861;SDS011;4799;50.996;4.754;2023-04-24T02:12:41;13.77;;;12.47;;
8861;SDS011;4799;50.996;4.754;2023-04-24T02:15:07;13.97;;;12.53;;
8861;SDS011;4799;50.996;4.754;2023-04-24T02:17:32;13.77;;;12.27;;
8861;SDS011;4799;50.996;4.754;2023-04-24T02:19:58;14.27;;;12.77;;
8861;SDS011;4799;50.996;4.754;2023-04-24T02:22:24;12.90;;;11.60;;
8861;SDS011;4799;50.996;4.754;2023-04-24T02:24:50;12.57;;;11.37;;
8861;SDS011;4799;50.996;4.754;2023-04-24T02:27:15;13.87;;;11.63;;
8861;SDS011;4799;50.996;4.754;2023-04-24T02:29:41;11.50;;;10.40;;
8861;SDS011;4799;50.996;4.754;2023-04-24T02:32:07;11.57;;;10.37;;
8861;SDS011;4799;50.996;4.754;2023-04-24T02:34:36;11.43;;;10.23;;
8861;SDS011;4799;50.996;4.754;2023-04-24T02:37:02;10.03;;;9.17;;
8861;SDS011;4799;50.996;4.754;2023-04-24T02:39:28;11.77;;;10.53;;
8861;SDS011;4799;50.996;4.754;2023-04-24T02:41:54;11.37;;;10.27;;
8861;SDS011;4799;50.996;4.754;2023-04-24T02:44:20;12.47;;;11.17;;
8861;SDS011;4799;50.996;4.754;2023-04-24T02:46:46;12.30;;;11.10;;
8861;SDS011;4799;50.996;4.754;2023-04-24T02:49:12;13.20;;;11.97;;
8861;SDS011;4799;50.996;4.754;2023-04-24T02:51:38;14.70;;;12.50;;
8861;SDS011;4799;50.996;4.754;2023-04-24T02:54:06;13.67;;;12.33;;
8861;SDS011;4799;50.996;4.754;2023-04-24T02:56:35;14.80;;;13.30;;
8861;SDS011;4799;50.996;4.754;2023-04-24T02:59:01;15.03;;;13.50;;
8861;SDS011;4799;50.996;4.754;2023-04-24T03:01:27;14.20;;;12.80;;
8861;SDS011;4799;50.996;4.754;2023-04-24T03:03:53;14.90;;;13.50;;
8861;SDS011;4799;50.996;4.754;2023-04-24T03:06:19;15.93;;;14.33;;
8861;SDS011;4799;50.996;4.754;2023-04-24T03:08:46;16.10;;;14.50;;
8861;SDS011;4799;50.996;4.754;2023-04-24T03:11:12;16.17;;;14.30;;
8861;SDS011;4799;50.996;4.754;2023-04-24T03:13:37;14.20;;;12.83;;
8861;SDS011;4799;50.996;4.754;2023-04-24T03:16:03;15.33;;;13.90;;
8861;SDS011;4799;50.996;4.754;2023-04-24T03:18:29;15.40;;;14.00;;
8861;SDS011;4799;50.996;4.754;2023-04-24T03:20:55;15.10;;;13.47;;
8861;SDS011;4799;50.996;4.754;2023-04-24T03:23:21;15.50;;;13.80;;
8861;SDS011;4799;50.996;4.754;2023-04-24T03:25:46;15.30;;;13.80;;
8861;SDS011;4799;50.996;4.754;2023-04-24T03:28:13;15.57;;;14.07;;
8861;SDS011;4799;50.996;4.754;2023-04-24T03:30:39;15.97;;;14.40;;
8861;SDS011;4799;50.996;4.754;2023-04-24T03:33:05;15.80;;;14.30;;
8861;SDS011;4799;50.996;4.754;2023-04-24T03:35:31;15.70;;;14.03;;
8861;SDS011;4799;50.996;4.754;2023-04-24T03:37:57;17.07;;;15.20;;
8861;SDS011;4799;50.996;4.754;2023-04-24T03:40:22;16.50;;;14.97;;
8861;SDS011;4799;50.996;4.754;2023-04-24T03:42:48;17.20;;;15.57;;
8861;SDS011;4799;50.996;4.754;2023-04-24T03:45:14;16.57;;;15.00;;
8861;SDS011;4799;50.996;4.754;2023-04-24T03:47:39;17.33;;;15.60;;
8861;SDS011;4799;50.996;4.754;2023-04-24T03:50:05;16.73;;;15.13;;
8861;SDS011;4799;50.996;4.754;2023-04-24T03:52:31;16.03;;;14.50;;
8861;SDS011;4799;50.996;4.754;2023-04-24T03:54:57;15.77;;;14.17;;
8861;SDS011;4799;50.996;4.754;2023-04-24T03:57:23;15.47;;;13.87;;
8861;SDS011;4799;50.996;4.754;2023-04-24T03:59:48;15.00;;;13.40;;
8861;SDS011;4799;50.996;4.754;2023-04-24T04:02:14;15.47;;;13.87;;
8861;SDS011;4799;50.996;4.754;2023-04-24T04:04:40;15.77;;;14.07;;
8861;SDS011;4799;50.996;4.754;2023-04-24T04:07:05;15.13;;;13.63;;
8861;SDS011;4799;50.996;4.754;2023-04-24T04:09:32;14.27;;;12.83;;
8861;SDS011;4799;50.996;4.754;2023-04-24T04:11:58;14.20;;;12.80;;
8861;SDS011;4799;50.996;4.754;2023-04-24T04:14:24;12.77;;;11.57;;
8861;SDS011;4799;50.996;4.754;2023-04-24T04:16:49;13.30;;;12.03;;
8861;SDS011;4799;50.996;4.754;2023-04-24T04:19:16;13.07;;;11.77;;
8861;SDS011;4799;50.996;4.754;2023-04-24T04:21:41;13.30;;;12.00;;
8861;SDS011;4799;50.996;4.754;2023-04-24T04:24:07;11.93;;;10.73;;
8861;SDS011;4799;50.996;4.754;2023-04-24T04:26:34;12.07;;;10.97;;
8861;SDS011;4799;50.996;4.754;2023-04-24T04:29:00;12.57;;;10.63;;
8861;SDS011;4799;50.996;4.754;2023-04-24T04:31:26;12.37;;;11.17;;
8861;SDS011;4799;50.996;4.754;2023-04-24T04:33:52;11.97;;;10.77;;
8861;SDS011;4799;50.996;4.754;2023-04-24T04:36:17;11.63;;;10.53;;
8861;SDS011;4799;50.996;4.754;2023-04-24T04:38:43;12.90;;;11.50;;
8861;SDS011;4799;50.996;4.754;2023-04-24T04:41:09;14.23;;;11.93;;
8861;SDS011;4799;50.996;4.754;2023-04-24T04:43:35;12.33;;;11.13;;
8861;SDS011;4799;50.996;4.754;2023-04-24T04:46:03;10.77;;;9.67;;
8861;SDS011;4799;50.996;4.754;2023-04-24T04:48:28;13.17;;;11.80;;
8861;SDS011;4799;50.996;4.754;2023-04-24T04:50:56;13.13;;;11.73;;
8861;SDS011;4799;50.996;4.754;2023-04-24T04:53:23;13.93;;;12.47;;
8861;SDS011;4799;50.996;4.754;2023-04-24T04:55:48;11.70;;;10.50;;
8861;SDS011;4799;50.996;4.754;2023-04-24T04:58:14;11.30;;;10.20;;
8861;SDS011;4799;50.996;4.754;2023-04-24T05:00:40;12.70;;;10.37;;
8861;SDS011;4799;50.996;4.754;2023-04-24T05:03:06;11.20;;;10.10;;
8861;SDS011;4799;50.996;4.754;2023-04-24T05:05:32;11.13;;;9.93;;
8861;SDS011;4799;50.996;4.754;2023-04-24T05:07:58;11.40;;;10.23;;
8861;SDS011;4799;50.996;4.754;2023-04-24T05:10:23;14.33;;;11.57;;
8861;SDS011;4799;50.996;4.754;2023-04-24T05:12:49;12.50;;;10.70;;
8861;SDS011;4799;50.996;4.754;2023-04-24T05:15:15;13.07;;;11.67;;
8861;SDS011;4799;50.996;4.754;2023-04-24T05:17:41;12.97;;;11.13;;
8861;SDS011;4799;50.996;4.754;2023-04-24T05:20:07;12.90;;;11.50;;
8861;SDS011;4799;50.996;4.754;2023-04-24T05:22:33;15.13;;;12.80;;
8861;SDS011;4799;50.996;4.754;2023-04-24T05:24:59;14.07;;;12.53;;
8861;SDS011;4799;50.996;4.754;2023-04-24T05:27:25;15.17;;;13.57;;
8861;SDS011;4799;50.996;4.754;2023-04-24T05:29:50;17.50;;;13.87;;
8861;SDS011;4799;50.996;4.754;2023-04-24T05:32:16;15.63;;;13.93;;
8861;SDS011;4799;50.996;4.754;2023-04-24T05:34:42;14.97;;;13.03;;
8861;SDS011;4799;50.996;4.754;2023-04-24T05:37:08;16.90;;;14.60;;
8861;SDS011;4799;50.996;4.754;2023-04-24T05:39:35;20.67;;;16.43;;
8861;SDS011;4799;50.996;4.754;2023-04-24T05:42:01;21.00;;;17.20;;
8861;SDS011;4799;50.996;4.754;2023-04-24T05:44:28;23.80;;;19.63;;
8861;SDS011;4799;50.996;4.754;2023-04-24T05:46:54;31.17;;;21.80;;
8861;SDS011;4799;50.996;4.754;2023-04-24T05:49:20;29.07;;;22.37;;
8861;SDS011;4799;50.996;4.754;2023-04-24T05:51:46;34.57;;;24.40;;
8861;SDS011;4799;50.996;4.754;2023-04-24T05:54:12;26.30;;;20.90;;
8861;SDS011;4799;50.996;4.754;2023-04-24T05:56:38;26.20;;;19.37;;
8861;SDS011;4799;50.996;4.754;2023-04-24T05:59:04;26.50;;;20.53;;
8861;SDS011;4799;50.996;4.754;2023-04-24T06:01:30;25.63;;;20.23;;
8861;SDS011;4799;50.996;4.754;2023-04-24T06:03:56;29.60;;;20.43;;
8861;SDS011;4799;50.996;4.754;2023-04-24T06:06:23;28.63;;;22.03;;
8861;SDS011;4799;50.996;4.754;2023-04-24T06:08:49;28.87;;;22.30;;
8861;SDS011;4799;50.996;4.754;2023-04-24T06:11:15;32.87;;;22.63;;
8861;SDS011;4799;50.996;4.754;2023-04-24T06:13:41;32.77;;;22.60;;
8861;SDS011;4799;50.996;4.754;2023-04-24T06:16:06;32.60;;;23.77;;
8861;SDS011;4799;50.996;4.754;2023-04-24T06:18:32;35.37;;;23.70;;
8861;SDS011;4799;50.996;4.754;2023-04-24T06:20:58;34.33;;;23.83;;
8861;SDS011;4799;50.996;4.754;2023-04-24T06:23:24;36.93;;;24.10;;
8861;SDS011;4799;50.996;4.754;2023-04-24T06:25:50;35.60;;;24.20;;
8861;SDS011;4799;50.996;4.754;2023-04-24T06:28:16;28.20;;;20.93;;
8861;SDS011;4799;50.996;4.754;2023-04-24T06:30:42;29.63;;;21.23;;
8861;SDS011;4799;50.996;4.754;2023-04-24T06:33:08;28.80;;;22.00;;
8861;SDS011;4799;50.996;4.754;2023-04-24T06:35:35;30.10;;;21.77;;
8861;SDS011;4799;50.996;4.754;2023-04-24T06:38:01;30.20;;;23.57;;
8861;SDS011;4799;50.996;4.754;2023-04-24T06:40:27;35.13;;;24.90;;
8861;SDS011;4799;50.996;4.754;2023-04-24T06:42:52;32.13;;;23.40;;
8861;SDS011;4799;50.996;4.754;2023-04-24T06:45:18;31.20;;;22.53;;
8861;SDS011;4799;50.996;4.754;2023-04-24T06:47:44;28.97;;;22.53;;
8861;SDS011;4799;50.996;4.754;2023-04-24T06:50:10;30.60;;;22.93;;
8861;SDS011;4799;50.996;4.754;2023-04-24T06:52:36;30.47;;;24.53;;
8861;SDS011;4799;50.996;4.754;2023-04-24T06:55:02;34.47;;;25.03;;
8861;SDS011;4799;50.996;4.754;2023-04-24T06:57:29;36.30;;;25.57;;
8861;SDS011;4799;50.996;4.754;2023-04-24T06:59:55;33.40;;;24.90;;
8861;SDS011;4799;50.996;4.754;2023-04-24T07:02:21;31.33;;;25.13;;
8861;SDS011;4799;50.996;4.754;2023-04-24T07:04:47;36.13;;;27.23;;
8861;SDS011;4799;50.996;4.754;2023-04-24T07:07:13;35.87;;;27.17;;
8861;SDS011;4799;50.996;4.754;2023-04-24T07:09:39;33.00;;;26.33;;
8861;SDS011;4799;50.996;4.754;2023-04-24T07:12:09;38.10;;;26.73;;
8861;SDS011;4799;50.996;4.754;2023-04-24T07:14:38;36.77;;;26.77;;
8861;SDS011;4799;50.996;4.754;2023-04-24T07:17:04;34.30;;;26.00;;
8861;SDS011;4799;50.996;4.754;2023-04-24T07:19:31;34.87;;;25.70;;
8861;SDS011;4799;50.996;4.754;2023-04-24T07:21:58;32.37;;;25.23;;
8861;SDS011;4799;50.996;4.754;2023-04-24T07:24:25;27.67;;;20.47;;
8861;SDS011;4799;50.996;4.754;2023-04-24T07:26:51;29.90;;;23.10;;
8861;SDS011;4799;50.996;4.754;2023-04-24T07:29:17;32.03;;;24.27;;
8861;SDS011;4799;50.996;4.754;2023-04-24T07:31:43;30.00;;;24.67;;
8861;SDS011;4799;50.996;4.754;2023-04-24T07:34:09;32.23;;;24.63;;
8861;SDS011;4799;50.996;4.754;2023-04-24T07:36:35;30.03;;;21.93;;
8861;SDS011;4799;50.996;4.754;2023-04-24T07:39:03;29.97;;;19.70;;
8861;SDS011;4799;50.996;4.754;2023-04-24T07:41:33;21.07;;;16.80;;
8861;SDS011;4799;50.996;4.754;2023-04-24T07:43:59;20.97;;;15.53;;
8861;SDS011;4799;50.996;4.754;2023-04-24T07:46:25;23.60;;;15.97;;
8861;SDS011;4799;50.996;4.754;2023-04-24T07:48:52;23.87;;;15.87;;
8861;SDS011;4799;50.996;4.754;2023-04-24T07:51:19;19.90;;;15.23;;
8861;SDS011;4799;50.996;4.754;2023-04-24T07:53:44;18.00;;;13.00;;
8861;SDS011;4799;50.996;4.754;2023-04-24T07:56:10;17.40;;;12.93;;
8861;SDS011;4799;50.996;4.754;2023-04-24T07:58:36;19.00;;;12.57;;
8861;SDS011;4799;50.996;4.754;2023-04-24T08:01:02;15.07;;;11.00;;
8861;SDS011;4799;50.996;4.754;2023-04-24T08:03:27;15.97;;;9.50;;
8861;SDS011;4799;50.996;4.754;2023-04-24T08:05:53;13.93;;;9.80;;
8861;SDS011;4799;50.996;4.754;2023-04-24T08:08:21;13.60;;;9.43;;
8861;SDS011;4799;50.996;4.754;2023-04-24T08:10:47;14.97;;;8.97;;
8861;SDS011;4799;50.996;4.754;2023-04-24T08:13:13;14.03;;;9.00;;
8861;SDS011;4799;50.996;4.754;2023-04-24T08:15:39;13.07;;;8.23;;
8861;SDS011;4799;50.996;4.754;2023-04-24T08:18:05;12.37;;;8.00;;
8861;SDS011;4799;50.996;4.754;2023-04-24T08:20:31;14.57;;;8.27;;
8861;SDS011;4799;50.996;4.754;2023-04-24T08:22:56;17.03;;;8.63;;
8861;SDS011;4799;50.996;4.754;2023-04-24T08:25:22;14.73;;;8.40;;
8861;SDS011;4799;50.996;4.754;2023-04-24T08:27:50;14.87;;;8.93;;
8861;SDS011;4799;50.996;4.754;2023-04-24T08:30:15;16.43;;;7.93;;
8861;SDS011;4799;50.996;4.754;2023-04-24T08:32:42;13.33;;;7.77;;
8861;SDS011;4799;50.996;4.754;2023-04-24T08:35:07;15.23;;;7.37;;
8861;SDS011;4799;50.996;4.754;2023-04-24T08:37:34;13.07;;;8.37;;
8861;SDS011;4799;50.996;4.754;2023-04-24T08:40:01;13.13;;;9.20;;
8861;SDS011;4799;50.996;4.754;2023-04-24T08:42:32;15.73;;;10.33;;
8861;SDS011;4799;50.996;4.754;2023-04-24T08:45:02;18.50;;;11.67;;
8861;SDS011;4799;50.996;4.754;2023-04-24T08:47:27;16.70;;;11.73;;
8861;SDS011;4799;50.996;4.754;2023-04-24T08:49:55;19.67;;;11.37;;
8861;SDS011;4799;50.996;4.754;2023-04-24T08:52:21;18.53;;;11.03;;
8861;SDS011;4799;50.996;4.754;2023-04-24T08:54:47;19.13;;;10.77;;
8861;SDS011;4799;50.996;4.754;2023-04-24T08:57:14;14.50;;;10.53;;
8861;SDS011;4799;50.996;4.754;2023-04-24T08:59:40;15.10;;;10.17;;
8861;SDS011;4799;50.996;4.754;2023-04-24T09:02:06;16.93;;;10.33;;
8861;SDS011;4799;50.996;4.754;2023-04-24T09:04:35;16.40;;;9.60;;
8861;SDS011;4799;50.996;4.754;2023-04-24T09:07:02;14.83;;;9.03;;
8861;SDS011;4799;50.996;4.754;2023-04-24T09:09:31;17.13;;;10.27;;
8861;SDS011;4799;50.996;4.754;2023-04-24T09:11:58;18.80;;;10.97;;
8861;SDS011;4799;50.996;4.754;2023-04-24T09:14:24;21.57;;;11.67;;
8861;SDS011;4799;50.996;4.754;2023-04-24T09:16:50;19.37;;;11.17;;
8861;SDS011;4799;50.996;4.754;2023-04-24T09:19:16;19.13;;;9.60;;
8861;SDS011;4799;50.996;4.754;2023-04-24T09:21:46;15.10;;;8.87;;
8861;SDS011;4799;50.996;4.754;2023-04-24T09:24:16;12.77;;;7.63;;
8861;SDS011;4799;50.996;4.754;2023-04-24T09:26:45;11.87;;;6.83;;
8861;SDS011;4799;50.996;4.754;2023-04-24T09:29:17;15.83;;;7.20;;
8861;SDS011;4799;50.996;4.754;2023-04-24T09:31:44;11.03;;;6.93;;
8861;SDS011;4799;50.996;4.754;2023-04-24T09:34:10;13.17;;;6.90;;
8861;SDS011;4799;50.996;4.754;2023-04-24T09:36:41;14.23;;;8.23;;
8861;SDS011;4799;50.996;4.754;2023-04-24T09:39:08;13.33;;;8.27;;
8861;SDS011;4799;50.996;4.754;2023-04-24T09:41:44;12.30;;;8.10;;
8861;SDS011;4799;50.996;4.754;2023-04-24T09:44:11;11.43;;;7.40;;
8861;SDS011;4799;50.996;4.754;2023-04-24T09:46:38;11.00;;;6.50;;
8861;SDS011;4799;50.996;4.754;2023-04-24T09:49:08;9.83;;;6.30;;
8861;SDS011;4799;50.996;4.754;2023-04-24T09:51:38;11.17;;;6.67;;
8861;SDS011;4799;50.996;4.754;2023-04-24T09:54:11;16.60;;;7.80;;
8861;SDS011;4799;50.996;4.754;2023-04-24T09:56:44;13.77;;;7.00;;
8861;SDS011;4799;50.996;4.754;2023-04-24T09:59:15;12.37;;;6.10;;
8861;SDS011;4799;50.996;4.754;2023-04-24T10:01:44;12.53;;;6.40;;
8861;SDS011;4799;50.996;4.754;2023-04-24T10:04:18;10.20;;;6.10;;
8861;SDS011;4799;50.996;4.754;2023-04-24T10:06:49;7.53;;;5.50;;
8861;SDS011;4799;50.996;4.754;2023-04-24T10:09:16;9.77;;;5.27;;
8861;SDS011;4799;50.996;4.754;2023-04-24T10:11:44;9.43;;;5.03;;
8861;SDS011;4799;50.996;4.754;2023-04-24T10:14:15;8.00;;;4.67;;
8861;SDS011;4799;50.996;4.754;2023-04-24T10:16:43;8.30;;;4.70;;
8861;SDS011;4799;50.996;4.754;2023-04-24T10:19:09;7.67;;;4.47;;
8861;SDS011;4799;50.996;4.754;2023-04-24T10:21:38;6.83;;;4.13;;
8861;SDS011;4799;50.996;4.754;2023-04-24T10:24:20;7.50;;;4.20;;
8861;SDS011;4799;50.996;4.754;2023-04-24T10:26:46;6.87;;;4.20;;
8861;SDS011;4799;50.996;4.754;2023-04-24T10:29:13;8.40;;;4.20;;
8861;SDS011;4799;50.996;4.754;2023-04-24T10:31:41;6.70;;;4.33;;
8861;SDS011;4799;50.996;4.754;2023-04-24T10:34:10;7.43;;;4.20;;
8861;SDS011;4799;50.996;4.754;2023-04-24T10:36:38;7.43;;;4.13;;
8861;SDS011;4799;50.996;4.754;2023-04-24T10:39:08;9.27;;;4.33;;
8861;SDS011;4799;50.996;4.754;2023-04-24T10:41:37;9.23;;;4.73;;
8861;SDS011;4799;50.996;4.754;2023-04-24T10:44:13;8.02;;;4.57;;
8861;SDS011;4799;50.996;4.754;2023-04-24T10:46:44;6.50;;;4.77;;
8861;SDS011;4799;50.996;4.754;2023-04-24T10:49:12;7.37;;;4.73;;
8861;SDS011;4799;50.996;4.754;2023-04-24T10:59:43;8.50;;;5.37;;
8861;SDS011;4799;50.996;4.754;2023-04-24T11:02:09;7.13;;;4.60;;
8861;SDS011;4799;50.996;4.754;2023-04-24T11:04:35;8.17;;;4.97;;
8861;SDS011;4799;50.996;4.754;2023-04-24T11:07:04;9.93;;;4.73;;
8861;SDS011;4799;50.996;4.754;2023-04-24T11:09:30;7.93;;;4.53;;
8861;SDS011;4799;50.996;4.754;2023-04-24T11:12:06;5.20;;;4.20;;
8861;SDS011;4799;50.996;4.754;2023-04-24T11:17:31;6.83;;;4.00;;
8861;SDS011;4799;50.996;4.754;2023-04-24T11:20:09;6.20;;;4.00;;
8861;SDS011;4799;50.996;4.754;2023-04-24T11:22:37;6.40;;;3.70;;
8861;SDS011;4799;50.996;4.754;2023-04-24T11:25:05;8.17;;;3.50;;
8861;SDS011;4799;50.996;4.754;2023-04-24T11:27:39;5.43;;;3.20;;
8861;SDS011;4799;50.996;4.754;2023-04-24T11:30:08;5.13;;;3.40;;
8861;SDS011;4799;50.996;4.754;2023-04-24T11:32:36;7.53;;;3.37;;
8861;SDS011;4799;50.996;4.754;2023-04-24T11:35:13;5.80;;;3.47;;
8861;SDS011;4799;50.996;4.754;2023-04-24T11:37:44;5.57;;;3.20;;
8861;SDS011;4799;50.996;4.754;2023-04-24T11:40:11;4.47;;;3.03;;
8861;SDS011;4799;50.996;4.754;2023-04-24T11:42:41;5.57;;;3.20;;
8861;SDS011;4799;50.996;4.754;2023-04-24T11:45:29;5.07;;;3.40;;
8861;SDS011;4799;50.996;4.754;2023-04-24T11:47:56;4.60;;;3.20;;
8861;SDS011;4799;50.996;4.754;2023-04-24T11:50:23;4.80;;;3.43;;
8861;SDS011;4799;50.996;4.754;2023-04-24T11:52:54;5.17;;;3.80;;
8861;SDS011;4799;50.996;4.754;2023-04-24T11:57:47;6.03;;;4.47;;
8861;SDS011;4799;50.996;4.754;2023-04-24T12:00:18;8.23;;;4.27;;
8861;SDS011;4799;50.996;4.754;2023-04-24T12:02:46;7.47;;;4.37;;
8861;SDS011;4799;50.996;4.754;2023-04-24T12:05:19;8.13;;;4.47;;
8861;SDS011;4799;50.996;4.754;2023-04-24T12:07:45;8.87;;;4.80;;
8861;SDS011;4799;50.996;4.754;2023-04-24T12:10:11;7.80;;;4.97;;
8861;SDS011;4799;50.996;4.754;2023-04-24T12:12:37;7.50;;;4.80;;
8861;SDS011;4799;50.996;4.754;2023-04-24T12:15:07;6.40;;;4.07;;
8861;SDS011;4799;50.996;4.754;2023-04-24T12:17:33;5.97;;;4.07;;
8861;SDS011;4799;50.996;4.754;2023-04-24T12:20:05;8.17;;;4.20;;
8861;SDS011;4799;50.996;4.754;2023-04-24T12:25:17;8.60;;;4.47;;
8861;SDS011;4799;50.996;4.754;2023-04-24T12:27:44;8.13;;;4.50;;
8861;SDS011;4799;50.996;4.754;2023-04-24T12:30:14;6.20;;;4.50;;
8861;SDS011;4799;50.996;4.754;2023-04-24T12:32:45;6.30;;;4.50;;
8861;SDS011;4799;50.996;4.754;2023-04-24T12:35:12;6.00;;;4.10;;
8861;SDS011;4799;50.996;4.754;2023-04-24T12:37:38;6.67;;;4.63;;
8861;SDS011;4799;50.996;4.754;2023-04-24T12:40:11;6.87;;;4.70;;
8861;SDS011;4799;50.996;4.754;2023-04-24T12:42:45;6.97;;;4.83;;
8861;SDS011;4799;50.996;4.754;2023-04-24T12:45:11;6.03;;;4.20;;
8861;SDS011;4799;50.996;4.754;2023-04-24T12:47:38;6.30;;;4.70;;
8861;SDS011;4799;50.996;4.754;2023-04-24T12:50:06;7.70;;;4.60;;
8861;SDS011;4799;50.996;4.754;2023-04-24T12:52:39;4.43;;;3.53;;
8861;SDS011;4799;50.996;4.754;2023-04-24T12:55:05;6.27;;;3.90;;
8861;SDS011;4799;50.996;4.754;2023-04-24T12:57:35;6.77;;;4.40;;
8861;SDS011;4799;50.996;4.754;2023-04-24T13:00:02;5.63;;;3.87;;
8861;SDS011;4799;50.996;4.754;2023-04-24T13:02:29;5.17;;;4.13;;
8861;SDS011;4799;50.996;4.754;2023-04-24T13:04:56;7.30;;;4.33;;
8861;SDS011;4799;50.996;4.754;2023-04-24T13:07:23;6.20;;;4.27;;
8861;SDS011;4799;50.996;4.754;2023-04-24T13:09:50;7.77;;;3.83;;
8861;SDS011;4799;50.996;4.754;2023-04-24T13:12:16;7.50;;;4.03;;
8861;SDS011;4799;50.996;4.754;2023-04-24T13:14:42;5.97;;;3.63;;
8861;SDS011;4799;50.996;4.754;2023-04-24T13:17:08;5.93;;;3.73;;
8861;SDS011;4799;50.996;4.754;2023-04-24T13:19:44;5.70;;;3.57;;
8861;SDS011;4799;50.996;4.754;2023-04-24T13:22:11;6.20;;;3.93;;
8861;SDS011;4799;50.996;4.754;2023-04-24T13:24:37;5.20;;;3.47;;
8861;SDS011;4799;50.996;4.754;2023-04-24T13:27:05;6.37;;;3.00;;
8861;SDS011;4799;50.996;4.754;2023-04-24T13:29:31;5.33;;;3.20;;
8861;SDS011;4799;50.996;4.754;2023-04-24T13:31:57;4.80;;;2.97;;
8861;SDS011;4799;50.996;4.754;2023-04-24T13:34:23;7.37;;;3.70;;
8861;SDS011;4799;50.996;4.754;2023-04-24T13:36:54;5.80;;;3.57;;
8861;SDS011;4799;50.996;4.754;2023-04-24T13:39:22;6.57;;;3.60;;
8861;SDS011;4799;50.996;4.754;2023-04-24T13:41:48;6.40;;;4.13;;
8861;SDS011;4799;50.996;4.754;2023-04-24T13:44:15;6.50;;;3.83;;
8861;SDS011;4799;50.996;4.754;2023-04-24T13:46:42;4.87;;;3.63;;
8861;SDS011;4799;50.996;4.754;2023-04-24T13:49:09;6.00;;;3.80;;
8861;SDS011;4799;50.996;4.754;2023-04-24T13:51:36;4.37;;;3.20;;
8861;SDS011;4799;50.996;4.754;2023-04-24T13:54:02;4.47;;;3.43;;
8861;SDS011;4799;50.996;4.754;2023-04-24T13:56:27;4.37;;;3.07;;
8861;SDS011;4799;50.996;4.754;2023-04-24T13:58:53;3.67;;;2.63;;
8861;SDS011;4799;50.996;4.754;2023-04-24T14:01:19;4.77;;;2.90;;
8861;SDS011;4799;50.996;4.754;2023-04-24T14:03:49;4.30;;;2.90;;
8861;SDS011;4799;50.996;4.754;2023-04-24T14:06:18;5.70;;;3.00;;
8861;SDS011;4799;50.996;4.754;2023-04-24T14:08:44;4.33;;;3.00;;
8861;SDS011;4799;50.996;4.754;2023-04-24T14:11:10;3.67;;;2.60;;
8861;SDS011;4799;50.996;4.754;2023-04-24T14:13:36;5.80;;;2.73;;
8861;SDS011;4799;50.996;4.754;2023-04-24T14:16:05;5.23;;;2.83;;
8861;SDS011;4799;50.996;4.754;2023-04-24T14:18:31;5.17;;;2.50;;
8861;SDS011;4799;50.996;4.754;2023-04-24T14:20:57;5.63;;;2.87;;
8861;SDS011;4799;50.996;4.754;2023-04-24T14:23:23;2.90;;;2.63;;
8861;SDS011;4799;50.996;4.754;2023-04-24T14:25:49;4.70;;;2.70;;
8861;SDS011;4799;50.996;4.754;2023-04-24T14:28:17;4.07;;;2.70;;
8861;SDS011;4799;50.996;4.754;2023-04-24T14:30:45;3.90;;;2.90;;
8861;SDS011;4799;50.996;4.754;2023-04-24T14:33:11;5.30;;;2.53;;
8861;SDS011;4799;50.996;4.754;2023-04-24T14:35:38;3.93;;;2.10;;
8861;SDS011;4799;50.996;4.754;2023-04-24T14:38:04;4.80;;;2.83;;
8861;SDS011;4799;50.996;4.754;2023-04-24T14:40:30;4.47;;;2.90;;
8861;SDS011;4799;50.996;4.754;2023-04-24T14:42:57;2.90;;;2.60;;
8861;SDS011;4799;50.996;4.754;2023-04-24T14:45:24;4.80;;;2.90;;
8861;SDS011;4799;50.996;4.754;2023-04-24T14:47:50;3.40;;;2.50;;
8861;SDS011;4799;50.996;4.754;2023-04-24T14:50:16;5.40;;;2.60;;
8861;SDS011;4799;50.996;4.754;2023-04-24T14:52:41;3.77;;;2.67;;
8861;SDS011;4799;50.996;4.754;2023-04-24T14:55:07;3.00;;;2.40;;
8861;SDS011;4799;50.996;4.754;2023-04-24T14:57:33;3.03;;;2.00;;
8861;SDS011;4799;50.996;4.754;2023-04-24T15:00:01;3.07;;;1.90;;
8861;SDS011;4799;50.996;4.754;2023-04-24T15:02:28;4.03;;;2.13;;
8861;SDS011;4799;50.996;4.754;2023-04-24T15:04:54;3.10;;;1.80;;
8861;SDS011;4799;50.996;4.754;2023-04-24T15:07:20;3.53;;;1.90;;
8861;SDS011;4799;50.996;4.754;2023-04-24T15:09:45;2.57;;;2.00;;
8861;SDS011;4799;50.996;4.754;2023-04-24T15:12:12;3.57;;;2.17;;